Time;durP1;ratioP1;P1;durP2;ratioP2;P2;SDS_P1;SDS_P2;PMS_P1;PMS_P2;Temp;Humidity;BMP_temperature;BMP_pressure;BME280_temperature;BME280_humidity;BME280_pressure;Samples;Min_cycle;Max_cycle;Signal;HPM_P1;HPM_P2
2023/08/09 00:00:44;;;;;;;;;;;;;;;20.24;51.61;99815.28;3151975;28;19920;-68
2023/08/09 00:02:15;;;;;;;;;;;;;;;20.22;51.72;99817.19;3157411;28;19943;-68
2023/08/09 00:03:48;;;;;;;;;;;;;;;20.19;51.73;99818.28;3156732;28;19925;-69
2023/08/09 00:05:19;;;;;;;;;;;;;;;20.17;51.79;99825.53;3157800;28;20003;-68
2023/08/09 00:06:50;;;;;;;;;;;;;;;20.15;51.60;99830.13;3157885;28;19920;-68
2023/08/09 00:08:21;;;;;;;;;;;;;;;20.13;51.66;99826.75;3157710;28;20087;-68
2023/08/09 00:09:52;;;;;;;;;;;;;;;20.13;51.66;99829.41;3157693;28;19945;-68
2023/08/09 00:11:23;;;;;;;;;;;;;;;20.13;51.76;99824.09;3157628;28;19920;-68
2023/08/09 00:12:56;;;;;;;;;;;;;;;20.09;51.96;99822.69;3157775;28;20406;-68
2023/08/09 00:14:26;;;;;;;;;;;;;;;20.05;51.93;99820.44;3150771;28;20421;-67
2023/08/09 00:15:58;;;;;;;;;;;;;;;20.03;51.96;99817.94;3153874;28;19920;-68
2023/08/09 00:17:29;;;;;;;;;;;;;;;20.00;52.01;99819.03;3157572;28;19924;-67
2023/08/09 00:19:00;;;;;;;;;;;;;;;20.00;52.24;99820.84;3152288;28;19931;-68
2023/08/09 00:20:32;;;;;;;;;;;;;;;19.97;52.24;99821.09;3151772;28;19923;-67
2023/08/09 00:22:03;;;;;;;;;;;;;;;19.97;52.16;99821.94;3157786;28;19920;-67
2023/08/09 00:23:35;;;;;;;;;;;;;;;19.98;52.15;99826.25;3157087;28;19923;-67
2023/08/09 00:25:09;;;;;;;;;;;;;;;19.95;52.42;99828.31;3153112;28;20397;-68
2023/08/09 00:26:40;;;;;;;;;;;;;;;19.86;52.40;99827.28;3157474;28;19924;-67
2023/08/09 00:28:13;;;;;;;;;;;;;;;19.79;52.58;99828.75;3158480;28;20026;-68
2023/08/09 00:29:44;;;;;;;;;;;;;;;19.76;52.83;99829.00;3159924;28;19974;-67
2023/08/09 00:31:15;;;;;;;;;;;;;;;19.76;52.71;99827.22;3159950;28;19943;-67
2023/08/09 00:32:46;;;;;;;;;;;;;;;19.78;52.65;99832.34;3160010;28;19923;-67
2023/08/09 00:34:17;;;;;;;;;;;;;;;19.79;52.73;99826.13;3152452;28;19921;-68
2023/08/09 00:35:48;;;;;;;;;;;;;;;19.81;52.62;99824.16;3151323;28;19920;-67
2023/08/09 00:37:19;;;;;;;;;;;;;;;19.81;52.68;99825.97;3159024;28;19993;-67
2023/08/09 00:38:50;;;;;;;;;;;;;;;19.82;52.70;99823.22;3157914;28;19920;-68
2023/08/09 00:40:21;;;;;;;;;;;;;;;19.83;52.64;99824.88;3157201;28;20407;-68
2023/08/09 00:41:53;;;;;;;;;;;;;;;19.84;52.47;99823.06;3158751;28;19920;-67
2023/08/09 00:43:25;;;;;;;;;;;;;;;19.80;52.65;99822.50;3151122;28;20349;-67
2023/08/09 00:44:56;;;;;;;;;;;;;;;19.74;53.06;99818.56;3154635;28;19924;-67
2023/08/09 00:46:27;;;;;;;;;;;;;;;19.69;53.14;99822.53;3154521;28;19920;-68
2023/08/09 00:48:00;;;;;;;;;;;;;;;19.63;53.48;99820.38;3153001;28;20441;-68
2023/08/09 00:49:30;;;;;;;;;;;;;;;19.57;53.49;99827.00;3155279;28;19924;-67
2023/08/09 00:51:02;;;;;;;;;;;;;;;19.53;53.74;99823.78;3159885;28;20007;-67
2023/08/09 00:52:33;;;;;;;;;;;;;;;19.52;53.63;99819.47;3158732;28;19959;-67
2023/08/09 00:54:06;;;;;;;;;;;;;;;19.51;53.66;99817.78;3154559;28;19920;-69
2023/08/09 00:55:38;;;;;;;;;;;;;;;19.48;53.84;99815.38;3159448;28;19920;-67
2023/08/09 00:57:10;;;;;;;;;;;;;;;19.46;53.89;99812.06;3149248;28;19920;-67
2023/08/09 00:58:42;;;;;;;;;;;;;;;19.43;54.04;99812.31;3159493;28;19927;-67
2023/08/09 01:00:14;;;;;;;;;;;;;;;19.37;54.14;99814.59;3159641;28;20038;-67
2023/08/09 01:01:45;;;;;;;;;;;;;;;19.29;54.23;99810.78;3159381;28;20719;-67
2023/08/09 01:03:16;;;;;;;;;;;;;;;19.22;54.25;99812.22;3159552;28;19930;-67
2023/08/09 01:04:47;;;;;;;;;;;;;;;19.16;54.68;99815.38;3157893;28;19920;-67
2023/08/09 01:06:21;;;;;;;;;;;;;;;19.13;54.55;99820.06;3159577;28;19924;-67
2023/08/09 01:07:55;;;;;;;;;;;;;;;19.07;54.57;99816.94;3159719;28;19962;-67
2023/08/09 01:09:30;;;;;;;;;;;;;;;19.04;54.67;99808.44;3159414;28;20456;-67
2023/08/09 01:11:08;;;;;;;;;;;;;;;19.01;54.87;99806.03;3158800;28;19981;-67
2023/08/09 01:12:42;;;;;;;;;;;;;;;19.03;54.77;99807.59;3159281;28;19920;-67
2023/08/09 01:14:15;;;;;;;;;;;;;;;19.01;54.82;99801.59;3159244;28;20408;-66
2023/08/09 01:15:47;;;;;;;;;;;;;;;18.99;55.10;99800.91;3159237;28;19981;-67
2023/08/09 01:17:18;;;;;;;;;;;;;;;18.97;55.02;99802.00;3159312;28;19926;-66
2023/08/09 01:18:50;;;;;;;;;;;;;;;18.93;55.11;99796.13;3154967;28;20352;-67
2023/08/09 01:20:23;;;;;;;;;;;;;;;18.89;55.17;99801.75;3152003;28;19924;-67
2023/08/09 01:21:55;;;;;;;;;;;;;;;18.86;55.14;99806.31;3159270;28;19927;-66
2023/08/09 01:23:31;;;;;;;;;;;;;;;18.86;55.11;99795.75;3154131;28;19923;-66
2023/08/09 01:25:06;;;;;;;;;;;;;;;18.88;55.15;99803.56;3153531;28;19928;-66
2023/08/09 01:26:39;;;;;;;;;;;;;;;18.89;55.17;99799.94;3159599;28;19997;-67
2023/08/09 01:28:10;;;;;;;;;;;;;;;18.92;55.11;99806.78;3159445;28;19924;-66
2023/08/09 01:29:43;;;;;;;;;;;;;;;18.92;55.16;99804.16;3159138;28;19924;-67
2023/08/09 01:31:13;;;;;;;;;;;;;;;18.93;55.03;99809.31;3158206;28;19924;-66
2023/08/09 01:32:45;;;;;;;;;;;;;;;18.94;54.94;99805.72;3147185;28;19925;-67
2023/08/09 01:34:16;;;;;;;;;;;;;;;18.97;54.86;99802.00;3151882;28;20325;-67
2023/08/09 01:35:52;;;;;;;;;;;;;;;19.00;54.74;99807.03;3151690;28;19920;-67
2023/08/09 01:37:26;;;;;;;;;;;;;;;19.00;54.80;99807.03;3155740;28;19928;-67
2023/08/09 01:39:04;;;;;;;;;;;;;;;18.98;54.88;99801.84;3149969;28;19990;-67
2023/08/09 01:40:34;;;;;;;;;;;;;;;18.97;54.96;99799.34;3158159;28;19920;-67
2023/08/09 01:42:07;;;;;;;;;;;;;;;18.95;55.07;99801.25;3159111;28;20066;-67
2023/08/09 01:43:37;;;;;;;;;;;;;;;18.93;54.98;99797.91;3153022;28;20405;-67
2023/08/09 01:45:11;;;;;;;;;;;;;;;18.91;55.12;99797.19;3156014;28;19920;-66
2023/08/09 01:46:42;;;;;;;;;;;;;;;18.91;54.97;99799.84;3152234;28;20412;-66
2023/08/09 01:48:14;;;;;;;;;;;;;;;18.86;55.39;99805.47;3154668;28;19932;-67
2023/08/09 01:49:44;;;;;;;;;;;;;;;18.83;55.49;99803.06;3154586;28;20022;-67
2023/08/09 01:51:16;;;;;;;;;;;;;;;18.78;55.29;99803.47;3159302;28;20682;-66
2023/08/09 01:52:47;;;;;;;;;;;;;;;18.76;55.61;99805.38;3154800;28;19927;-66
2023/08/09 01:54:19;;;;;;;;;;;;;;;18.73;55.55;99799.47;3157583;28;19930;-67
2023/08/09 01:55:50;;;;;;;;;;;;;;;18.72;55.73;99803.06;3159462;28;19927;-67
2023/08/09 01:57:22;;;;;;;;;;;;;;;18.73;55.78;99807.38;3159201;28;19924;-67
2023/08/09 01:58:52;;;;;;;;;;;;;;;18.74;55.44;99807.28;3158905;28;19919;-66
2023/08/09 02:00:24;;;;;;;;;;;;;;;18.74;55.55;99809.09;3159025;28;19920;-66
2023/08/09 02:01:54;;;;;;;;;;;;;;;18.76;55.56;99809.81;3159026;28;19924;-66
2023/08/09 02:03:26;;;;;;;;;;;;;;;18.76;55.66;99807.19;3158641;28;19930;-67
2023/08/09 02:04:57;;;;;;;;;;;;;;;18.77;55.54;99806.22;3134115;28;19924;-67
2023/08/09 02:06:31;;;;;;;;;;;;;;;18.76;55.68;99815.91;3157075;28;19928;-67
2023/08/09 02:08:04;;;;;;;;;;;;;;;18.78;55.50;99807.88;3159084;28;19920;-68
2023/08/09 02:09:36;;;;;;;;;;;;;;;18.80;55.38;99814.72;3158921;28;20437;-67
2023/08/09 02:11:07;;;;;;;;;;;;;;;18.82;55.61;99819.88;3158889;28;20417;-67
2023/08/09 02:12:38;;;;;;;;;;;;;;;18.79;55.53;99818.31;3158886;28;19920;-67
2023/08/09 02:14:10;;;;;;;;;;;;;;;18.74;55.73;99820.47;3158810;28;19920;-67
2023/08/09 02:15:41;;;;;;;;;;;;;;;18.68;55.80;99817.44;3158579;28;20310;-67
2023/08/09 02:17:12;;;;;;;;;;;;;;;18.60;55.86;99820.69;3158594;28;19976;-67
2023/08/09 02:18:44;;;;;;;;;;;;;;;18.53;56.02;99816.84;3155636;28;19928;-67
2023/08/09 02:20:14;;;;;;;;;;;;;;;18.48;56.31;99821.63;3151025;28;19920;-67
2023/08/09 02:21:46;;;;;;;;;;;;;;;18.45;56.21;99829.78;3154278;28;20405;-67
2023/08/09 02:23:17;;;;;;;;;;;;;;;18.41;56.54;99832.66;3158448;28;19927;-67
2023/08/09 02:24:50;;;;;;;;;;;;;;;18.37;56.54;99831.22;3158514;28;19924;-67
2023/08/09 02:26:21;;;;;;;;;;;;;;;18.31;56.75;99821.16;3158593;28;19970;-68
2023/08/09 02:27:53;;;;;;;;;;;;;;;18.30;56.70;99837.91;3155457;28;19921;-67
2023/08/09 02:29:23;;;;;;;;;;;;;;;18.23;56.99;99836.72;3158838;28;20293;-67
2023/08/09 02:30:56;;;;;;;;;;;;;;;18.21;57.06;99835.16;3159160;28;19972;-67
2023/08/09 02:32:26;;;;;;;;;;;;;;;18.17;57.09;99842.47;3143694;28;19966;-67
2023/08/09 02:33:58;;;;;;;;;;;;;;;18.16;57.15;99844.25;3152450;28;19927;-68
2023/08/09 02:35:32;;;;;;;;;;;;;;;18.16;57.28;99843.41;3148048;28;20436;-67
2023/08/09 02:37:04;;;;;;;;;;;;;;;18.16;57.09;99846.91;3158332;28;19926;-67
2023/08/09 02:38:36;;;;;;;;;;;;;;;18.15;57.31;99852.28;3158269;28;19967;-67
2023/08/09 02:40:10;;;;;;;;;;;;;;;18.10;57.47;99851.78;3158401;28;19920;-68
2023/08/09 02:41:44;;;;;;;;;;;;;;;18.06;57.57;99855.59;3158807;28;19963;-67
2023/08/09 02:43:15;;;;;;;;;;;;;;;18.03;57.44;99861.94;3155124;28;20401;-67
2023/08/09 02:44:47;;;;;;;;;;;;;;;18.05;57.49;99865.31;3150459;28;19984;-67
2023/08/09 02:46:18;;;;;;;;;;;;;;;18.06;57.39;99864.34;3148714;28;20010;-67
2023/08/09 02:47:49;;;;;;;;;;;;;;;18.07;57.40;99865.19;3150904;28;20320;-67
2023/08/09 02:49:20;;;;;;;;;;;;;;;18.03;57.52;99858.47;3156732;28;19923;-68
2023/08/09 02:50:51;;;;;;;;;;;;;;;18.01;57.60;99861.22;3157706;28;20388;-67
2023/08/09 02:52:22;;;;;;;;;;;;;;;18.00;57.58;99867.44;3158676;28;19977;-66
2023/08/09 02:54:01;;;;;;;;;;;;;;;17.96;57.68;99866.84;3156700;28;20418;-67
2023/08/09 02:55:33;;;;;;;;;;;;;;;17.94;57.65;99865.28;3158566;28;19920;-67
2023/08/09 02:57:04;;;;;;;;;;;;;;;17.93;57.71;99874.97;3158281;28;19920;-68
2023/08/09 02:58:35;;;;;;;;;;;;;;;17.95;57.62;99867.81;3157952;28;20338;-67
2023/08/09 03:00:08;;;;;;;;;;;;;;;17.98;57.50;99873.78;3145939;28;19924;-68
2023/08/09 03:01:38;;;;;;;;;;;;;;;18.01;57.29;99882.28;3133501;28;20007;-67
2023/08/09 03:03:10;;;;;;;;;;;;;;;18.02;57.40;99875.25;3149584;28;19924;-67
2023/08/09 03:04:41;;;;;;;;;;;;;;;18.04;57.33;99882.06;3155129;28;19924;-68
2023/08/09 03:06:13;;;;;;;;;;;;;;;18.07;57.11;99886.25;3155745;28;19923;-67
2023/08/09 03:07:44;;;;;;;;;;;;;;;18.06;57.21;99877.53;3157945;28;19923;-67
2023/08/09 03:09:16;;;;;;;;;;;;;;;18.09;57.32;99879.09;3158239;28;19946;-68
2023/08/09 03:10:47;;;;;;;;;;;;;;;18.09;57.06;99881.72;3158060;28;20011;-67
2023/08/09 03:12:19;;;;;;;;;;;;;;;18.08;57.29;99894.06;3157691;28;19926;-67
2023/08/09 03:13:50;;;;;;;;;;;;;;;18.09;57.26;99884.38;3158430;28;19920;-67
2023/08/09 03:15:22;;;;;;;;;;;;;;;18.06;57.19;99890.69;3158078;28;19946;-66
2023/08/09 03:16:53;;;;;;;;;;;;;;;18.04;57.43;99887.31;3154320;28;19927;-66
2023/08/09 03:18:25;;;;;;;;;;;;;;;18.04;57.41;99892.59;3148292;28;19920;-66
2023/08/09 03:19:56;;;;;;;;;;;;;;;18.06;57.12;99905.69;3152326;28;19976;-65
2023/08/09 03:21:27;;;;;;;;;;;;;;;18.06;57.47;99897.78;3157790;28;19970;-65
2023/08/09 03:22:59;;;;;;;;;;;;;;;18.05;57.28;99899.56;3158256;28;19927;-65
2023/08/09 03:24:30;;;;;;;;;;;;;;;18.06;57.43;99900.41;3149723;28;19928;-66
2023/08/09 03:26:03;;;;;;;;;;;;;;;18.05;57.42;99902.22;3157946;28;20006;-65
2023/08/09 03:27:33;;;;;;;;;;;;;;;18.03;57.63;99905.91;3156883;28;19920;-65
2023/08/09 03:29:05;;;;;;;;;;;;;;;18.03;57.45;99911.19;3156455;28;19924;-65
2023/08/09 03:30:36;;;;;;;;;;;;;;;18.00;57.46;99906.97;3157243;28;19924;-65
2023/08/09 03:32:08;;;;;;;;;;;;;;;17.96;57.40;99895.81;3154850;28;19920;-65
2023/08/09 03:33:38;;;;;;;;;;;;;;;18.01;57.34;99908.63;3155253;28;19920;-65
2023/08/09 03:35:10;;;;;;;;;;;;;;;17.98;57.51;99913.31;3149045;28;20129;-65
2023/08/09 03:36:41;;;;;;;;;;;;;;;17.95;57.65;99915.22;3157507;28;19973;-65
2023/08/09 03:38:13;;;;;;;;;;;;;;;17.92;57.80;99912.81;3157731;28;20021;-65
2023/08/09 03:39:43;;;;;;;;;;;;;;;17.90;57.97;99920.00;3158015;28;20019;-64
2023/08/09 03:41:16;;;;;;;;;;;;;;;17.91;57.86;99918.19;3154194;28;19921;-65
2023/08/09 03:42:47;;;;;;;;;;;;;;;17.89;58.08;99920.94;3148456;28;20254;-65
2023/08/09 03:44:18;;;;;;;;;;;;;;;17.89;57.96;99922.72;3147939;28;19921;-65
2023/08/09 03:45:49;;;;;;;;;;;;;;;17.91;57.77;99923.47;3147532;28;20394;-65
2023/08/09 03:47:21;;;;;;;;;;;;;;;17.89;57.91;99923.56;3148283;28;19924;-65
2023/08/09 03:48:51;;;;;;;;;;;;;;;17.88;57.92;99919.25;3156594;28;19932;-65
2023/08/09 03:50:23;;;;;;;;;;;;;;;17.88;57.88;99924.53;3132945;28;19924;-65
2023/08/09 03:51:54;;;;;;;;;;;;;;;17.87;57.71;99928.13;3156188;28;19928;-65
2023/08/09 03:53:26;;;;;;;;;;;;;;;17.84;57.96;99933.63;3157599;28;19974;-65
2023/08/09 03:54:56;;;;;;;;;;;;;;;17.83;58.14;99928.44;3155617;28;20026;-65
2023/08/09 03:56:29;;;;;;;;;;;;;;;17.74;58.38;99933.41;3157346;28;19927;-65
2023/08/09 03:58:00;;;;;;;;;;;;;;;17.69;58.46;99934.72;3157429;28;20304;-65
2023/08/09 03:59:32;;;;;;;;;;;;;;;17.63;58.61;99937.75;3150162;28;19935;-65
2023/08/09 04:01:03;;;;;;;;;;;;;;;17.62;58.68;99941.34;3151245;28;20313;-66
2023/08/09 04:02:34;;;;;;;;;;;;;;;17.60;58.58;99940.63;3159050;28;19984;-66
2023/08/09 04:04:07;;;;;;;;;;;;;;;17.61;58.68;99945.78;3155782;28;19924;-66
2023/08/09 04:05:38;;;;;;;;;;;;;;;17.62;58.71;99944.00;3160091;28;19963;-66
2023/08/09 04:07:09;;;;;;;;;;;;;;;17.59;58.91;99949.47;3160411;28;20360;-66
2023/08/09 04:08:40;;;;;;;;;;;;;;;17.59;58.71;99949.47;3160173;28;19920;-66
2023/08/09 04:10:12;;;;;;;;;;;;;;;17.60;58.96;99951.16;3159814;28;20022;-69
2023/08/09 04:11:44;;;;;;;;;;;;;;;17.62;58.60;99947.47;3160152;28;19930;-68
2023/08/09 04:13:15;;;;;;;;;;;;;;;17.66;58.69;99954.19;3158601;28;19984;-68
2023/08/09 04:14:46;;;;;;;;;;;;;;;17.67;58.39;99950.59;3159610;28;19963;-68
2023/08/09 04:16:18;;;;;;;;;;;;;;;17.72;58.37;99950.28;3159889;28;19927;-67
2023/08/09 04:17:49;;;;;;;;;;;;;;;17.73;58.51;99952.78;3157820;28;19927;-68
2023/08/09 04:19:20;;;;;;;;;;;;;;;17.74;58.37;99953.63;3154678;28;19943;-67
2023/08/09 04:20:51;;;;;;;;;;;;;;;17.75;58.41;99952.69;3151444;28;19928;-68
2023/08/09 04:22:22;;;;;;;;;;;;;;;17.76;58.41;99958.81;3159501;28;19920;-68
2023/08/09 04:23:53;;;;;;;;;;;;;;;17.72;58.65;99955.56;3145499;28;19974;-68
2023/08/09 04:25:25;;;;;;;;;;;;;;;17.70;58.67;99949.53;3140269;28;19940;-68
2023/08/09 04:26:57;;;;;;;;;;;;;;;17.69;59.03;99950.50;3146327;28;19932;-68
2023/08/09 04:28:29;;;;;;;;;;;;;;;17.67;59.05;99953.25;3139056;28;19932;-69
2023/08/09 04:30:00;;;;;;;;;;;;;;;17.67;59.20;99952.41;3147389;28;19927;-67
2023/08/09 04:31:32;;;;;;;;;;;;;;;17.69;59.06;99951.34;3147547;28;20401;-67
2023/08/09 04:33:03;;;;;;;;;;;;;;;17.73;58.82;99949.31;3146564;28;20397;-72
2023/08/09 04:34:35;;;;;;;;;;;;;;;17.76;59.06;99951.72;3144991;28;19942;-73
2023/08/09 04:36:05;;;;;;;;;;;;;;;17.73;59.11;99954.59;3146566;28;20675;-72
2023/08/09 04:37:37;;;;;;;;;;;;;;;17.74;58.92;99958.91;3146573;28;19981;-72
2023/08/09 04:39:09;;;;;;;;;;;;;;;17.79;58.83;99959.44;3147100;28;19929;-67
2023/08/09 04:40:40;;;;;;;;;;;;;;;17.82;58.72;99956.59;3146959;28;20021;-67
2023/08/09 04:42:13;;;;;;;;;;;;;;;17.87;58.62;99962.38;3135761;28;20378;-70
2023/08/09 04:43:46;;;;;;;;;;;;;;;17.91;58.42;99961.19;3138927;28;20015;-76
2023/08/09 04:45:16;;;;;;;;;;;;;;;17.94;58.56;99952.22;3144935;28;20423;-76
2023/08/09 04:46:48;;;;;;;;;;;;;;;17.97;58.63;99957.25;3139084;28;19928;-77
2023/08/09 04:48:19;;;;;;;;;;;;;;;18.01;58.58;99966.59;3140118;28;20361;-75
2023/08/09 04:49:51;;;;;;;;;;;;;;;18.03;58.27;99963.88;3145478;28;19928;-74
2023/08/09 04:51:22;;;;;;;;;;;;;;;18.07;58.31;99965.31;3147427;28;19927;-72
2023/08/09 04:52:54;;;;;;;;;;;;;;;18.11;58.19;99967.63;3146623;28;19921;-69
2023/08/09 04:54:25;;;;;;;;;;;;;;;18.14;58.20;99966.56;3144690;28;19974;-67
2023/08/09 04:55:57;;;;;;;;;;;;;;;18.18;58.07;99970.66;3141909;28;20003;-68
2023/08/09 04:57:31;;;;;;;;;;;;;;;18.21;57.96;99972.22;3140952;28;20314;-69
2023/08/09 04:59:08;;;;;;;;;;;;;;;18.21;58.11;99973.06;3146982;28;19943;-67
2023/08/09 05:00:40;;;;;;;;;;;;;;;18.17;58.20;99969.81;3147001;28;19926;-66
2023/08/09 05:02:11;;;;;;;;;;;;;;;18.15;58.32;99968.25;3145683;28;20455;-65
2023/08/09 05:03:42;;;;;;;;;;;;;;;18.14;58.52;99974.47;3139814;28;19974;-64
2023/08/09 05:05:14;;;;;;;;;;;;;;;18.17;58.27;99972.44;3142210;28;20404;-64
2023/08/09 05:06:45;;;;;;;;;;;;;;;18.21;58.25;99975.69;3146254;28;19970;-65
2023/08/09 05:08:16;;;;;;;;;;;;;;;18.25;58.08;99977.16;3146683;28;20409;-63
2023/08/09 05:09:48;;;;;;;;;;;;;;;18.30;58.18;99975.00;3139599;28;19936;-63
2023/08/09 05:11:19;;;;;;;;;;;;;;;18.30;58.09;99972.38;3143725;28;19973;-63
2023/08/09 05:12:52;;;;;;;;;;;;;;;18.33;58.04;99974.78;3146966;28;20464;-63
2023/08/09 05:14:23;;;;;;;;;;;;;;;18.36;58.13;99971.06;3130468;28;19924;-63
2023/08/09 05:15:55;;;;;;;;;;;;;;;18.39;58.10;99963.75;3137029;28;20364;-63
2023/08/09 05:17:26;;;;;;;;;;;;;;;18.45;57.86;99978.28;3144370;28;20324;-63
2023/08/09 05:18:57;;;;;;;;;;;;;;;18.48;58.02;99982.50;3145549;28;19921;-64
2023/08/09 05:20:29;;;;;;;;;;;;;;;18.51;58.06;99979.63;3142036;28;20322;-64
2023/08/09 05:22:00;;;;;;;;;;;;;;;18.56;57.86;99985.41;3122091;28;19921;-63
2023/08/09 05:23:31;;;;;;;;;;;;;;;18.62;57.81;99985.78;3140925;28;20469;-64
2023/08/09 05:25:02;;;;;;;;;;;;;;;18.62;57.83;99991.03;3145441;28;19920;-62
2023/08/09 05:26:34;;;;;;;;;;;;;;;18.62;57.88;99993.69;3146535;28;20003;-63
2023/08/09 05:28:06;;;;;;;;;;;;;;;18.63;57.81;99995.38;3146311;28;19982;-63
2023/08/09 05:29:38;;;;;;;;;;;;;;;18.66;57.81;99999.56;3146463;28;20386;-63
2023/08/09 05:31:08;;;;;;;;;;;;;;;18.71;57.86;99999.22;3146294;28;19920;-63
2023/08/09 05:32:40;;;;;;;;;;;;;;;18.78;57.78;100003.97;3142891;28;19932;-63
2023/08/09 05:34:11;;;;;;;;;;;;;;;18.89;57.60;100002.28;3138816;28;19924;-62
2023/08/09 05:35:42;;;;;;;;;;;;;;;18.97;57.54;99999.91;3146452;28;19924;-62
2023/08/09 05:37:13;;;;;;;;;;;;;;;19.07;57.36;99995.59;3144750;28;20034;-63
2023/08/09 05:38:45;;;;;;;;;;;;;;;19.19;57.12;100001.72;3134018;28;19920;-64
2023/08/09 05:40:16;;;;;;;;;;;;;;;19.29;57.08;99992.13;3136135;28;21152;-62
2023/08/09 05:41:47;;;;;;;;;;;;;;;19.39;56.80;100000.16;3146304;28;19924;-62
2023/08/09 05:43:20;;;;;;;;;;;;;;;19.45;56.82;99992.59;3142801;28;19965;-62
2023/08/09 05:44:51;;;;;;;;;;;;;;;19.50;56.82;99989.59;3140198;28;19927;-63
2023/08/09 05:46:23;;;;;;;;;;;;;;;19.61;56.57;99991.38;3141433;28;19982;-65
2023/08/09 05:47:53;;;;;;;;;;;;;;;19.72;56.48;99994.03;3136311;28;19924;-64
2023/08/09 05:49:25;;;;;;;;;;;;;;;19.83;56.50;99988.72;3138595;28;19977;-64
2023/08/09 05:50:55;;;;;;;;;;;;;;;19.94;56.34;99987.88;3146394;28;19927;-64
2023/08/09 05:52:28;;;;;;;;;;;;;;;20.04;56.23;99985.31;3138659;28;19920;-64
2023/08/09 05:53:58;;;;;;;;;;;;;;;20.11;56.06;99986.47;3144926;28;20139;-63
2023/08/09 05:55:30;;;;;;;;;;;;;;;20.16;55.86;99985.13;3146384;28;19924;-62
2023/08/09 05:57:00;;;;;;;;;;;;;;;20.27;55.78;99988.72;3141709;28;19930;-61
2023/08/09 05:58:34;;;;;;;;;;;;;;;20.40;55.66;99987.56;3135778;28;19920;-61
2023/08/09 06:00:06;;;;;;;;;;;;;;;20.53;55.39;99987.41;3145473;28;20336;-61
2023/08/09 06:01:38;;;;;;;;;;;;;;;20.64;55.01;99982.03;3146136;28;19920;-62
2023/08/09 06:03:09;;;;;;;;;;;;;;;20.85;55.16;99990.00;3135365;28;19924;-63
2023/08/09 06:04:43;;;;;;;;;;;;;;;21.21;55.03;99987.81;3124501;28;19975;-63
2023/08/09 06:06:13;;;;;;;;;;;;;;;21.86;53.85;99982.13;3129531;28;20294;-65
2023/08/09 06:07:45;;;;;;;;;;;;;;;22.79;51.63;99988.72;3133639;28;19921;-65
2023/08/09 06:09:16;;;;;;;;;;;;;;;23.88;49.29;99981.03;3136848;28;19927;-64
2023/08/09 06:10:47;;;;;;;;;;;;;;;24.75;46.96;99980.28;3146020;28;19924;-65
2023/08/09 06:12:18;;;;;;;;;;;;;;;25.00;45.58;99989.28;3145578;28;20409;-63
2023/08/09 06:13:51;;;;;;;;;;;;;;;24.67;45.17;99986.41;3142649;28;19931;-64
2023/08/09 06:15:22;;;;;;;;;;;;;;;24.12;46.35;99983.09;3145770;28;19974;-65
2023/08/09 06:16:54;;;;;;;;;;;;;;;23.75;47.57;99986.69;3139698;28;20015;-65
2023/08/09 06:18:24;;;;;;;;;;;;;;;23.42;48.19;99993.41;3138723;28;19986;-67
2023/08/09 06:20:01;;;;;;;;;;;;;;;23.19;48.98;99985.84;3127788;28;19999;-65
2023/08/09 06:21:36;;;;;;;;;;;;;;;23.02;49.55;99989.25;3145748;28;19924;-67
2023/08/09 06:23:06;;;;;;;;;;;;;;;22.87;49.74;99991.50;3145639;28;19921;-65
2023/08/09 06:24:38;;;;;;;;;;;;;;;22.65;49.89;99984.69;3145880;28;19943;-66
2023/08/09 06:26:10;;;;;;;;;;;;;;;22.52;50.44;99994.78;3145865;28;19920;-65
2023/08/09 06:27:41;;;;;;;;;;;;;;;22.33;50.31;99983.19;3145789;28;20320;-64
2023/08/09 06:29:13;;;;;;;;;;;;;;;22.14;50.39;99985.81;3145680;28;19929;-66
2023/08/09 06:30:46;;;;;;;;;;;;;;;22.01;50.90;99980.78;3136483;28;19928;-65
2023/08/09 06:32:17;;;;;;;;;;;;;;;21.99;50.94;99985.38;3133203;28;20409;-65
2023/08/09 06:33:49;;;;;;;;;;;;;;;22.00;51.03;99977.28;3141582;28;19920;-65
2023/08/09 06:35:19;;;;;;;;;;;;;;;22.04;50.99;99975.22;3138893;28;19948;-66
2023/08/09 06:36:51;;;;;;;;;;;;;;;22.11;50.91;99978.97;3133768;28;20381;-66
2023/08/09 06:38:22;;;;;;;;;;;;;;;22.17;50.79;99972.31;3143241;28;19924;-65
2023/08/09 06:39:53;;;;;;;;;;;;;;;22.24;50.93;99973.41;3145205;28;19920;-65
2023/08/09 06:41:25;;;;;;;;;;;;;;;22.23;50.69;99971.75;3145528;28;20408;-65
2023/08/09 06:42:55;;;;;;;;;;;;;;;22.24;50.60;99968.97;3144687;28;19920;-65
2023/08/09 06:44:29;;;;;;;;;;;;;;;22.32;50.56;99964.75;3141948;28;19931;-64
2023/08/09 06:46:01;;;;;;;;;;;;;;;22.43;50.74;99964.63;3136881;28;19921;-63
2023/08/09 06:47:31;;;;;;;;;;;;;;;22.57;50.45;99969.50;3138539;28;20451;-62
2023/08/09 06:49:03;;;;;;;;;;;;;;;22.67;50.22;99967.63;3128479;28;19932;-62
2023/08/09 06:50:33;;;;;;;;;;;;;;;22.80;50.06;99966.50;3123173;28;20000;-62
2023/08/09 06:52:05;;;;;;;;;;;;;;;22.90;49.85;99962.84;3130475;28;19924;-62
2023/08/09 06:53:36;;;;;;;;;;;;;;;23.06;49.47;99966.72;3144600;28;19928;-63
2023/08/09 06:55:08;;;;;;;;;;;;;;;23.17;49.32;99969.19;3136361;28;19925;-63
2023/08/09 06:56:39;;;;;;;;;;;;;;;23.26;49.39;99965.66;3133175;28;19924;-65
2023/08/09 06:58:10;;;;;;;;;;;;;;;23.30;49.30;99964.38;3144778;28;19920;-64
2023/08/09 06:59:42;;;;;;;;;;;;;;;23.42;48.79;99958.88;3145738;28;19978;-65
2023/08/09 07:01:14;;;;;;;;;;;;;;;23.48;48.28;99959.09;3140751;28;20385;-64
2023/08/09 07:02:46;;;;;;;;;;;;;;;23.58;47.99;99959.06;3139606;28;20022;-64
2023/08/09 07:04:18;;;;;;;;;;;;;;;23.68;48.29;99957.19;3142594;28;19947;-64
2023/08/09 07:05:49;;;;;;;;;;;;;;;23.76;47.16;99951.97;3145355;28;20007;-63
2023/08/09 07:07:21;;;;;;;;;;;;;;;23.86;46.60;99951.91;3131879;28;20386;-64
2023/08/09 07:08:53;;;;;;;;;;;;;;;23.96;47.07;99960.66;3142871;28;19947;-63
2023/08/09 07:10:25;;;;;;;;;;;;;;;24.02;46.95;99952.06;3136097;28;20428;-63
2023/08/09 07:11:57;;;;;;;;;;;;;;;24.09;47.33;99951.47;3145629;28;20010;-65
2023/08/09 07:13:29;;;;;;;;;;;;;;;24.17;46.99;99954.22;3138046;28;19921;-65
2023/08/09 07:15:01;;;;;;;;;;;;;;;24.25;47.15;99947.13;3145322;28;20602;-66
2023/08/09 07:16:33;;;;;;;;;;;;;;;24.30;46.59;99944.81;3137042;28;19920;-66
2023/08/09 07:18:04;;;;;;;;;;;;;;;24.37;46.88;99944.19;3145238;28;19924;-65
2023/08/09 07:19:35;;;;;;;;;;;;;;;24.46;46.70;99948.63;3125104;28;19927;-67
2023/08/09 07:21:07;;;;;;;;;;;;;;;24.51;46.47;99949.00;3142445;28;20420;-66
2023/08/09 07:22:38;;;;;;;;;;;;;;;24.52;46.21;99950.66;3145261;28;19924;-65
2023/08/09 07:24:09;;;;;;;;;;;;;;;24.54;46.03;99950.53;3145011;28;19943;-64
2023/08/09 07:25:40;;;;;;;;;;;;;;;24.59;46.32;99946.41;3145183;28;20768;-65
2023/08/09 07:27:12;;;;;;;;;;;;;;;24.64;46.39;99944.13;3142200;28;19924;-64
2023/08/09 07:28:42;;;;;;;;;;;;;;;24.69;46.08;99947.13;3144923;28;19924;-66
2023/08/09 07:30:16;;;;;;;;;;;;;;;24.77;45.95;99940.19;3139787;28;20383;-64
2023/08/09 07:31:48;;;;;;;;;;;;;;;24.88;46.02;99937.28;3139931;28;19978;-65
2023/08/09 07:33:21;;;;;;;;;;;;;;;24.98;45.85;99932.66;3142735;28;19932;-66
2023/08/09 07:34:53;;;;;;;;;;;;;;;25.10;45.58;99935.88;3136124;28;19947;-66
2023/08/09 07:36:25;;;;;;;;;;;;;;;25.17;45.65;99942.25;3144396;28;20385;-66
2023/08/09 07:37:55;;;;;;;;;;;;;;;25.23;44.31;99936.31;3144523;28;20011;-65
2023/08/09 07:39:27;;;;;;;;;;;;;;;25.20;43.82;99931.25;3145223;28;19920;-66
2023/08/09 07:40:58;;;;;;;;;;;;;;;25.15;43.18;99939.75;3144697;28;19921;-66
2023/08/09 07:42:29;;;;;;;;;;;;;;;25.17;43.21;99935.13;3145117;28;19925;-64
2023/08/09 07:44:01;;;;;;;;;;;;;;;25.25;43.78;99933.47;3135741;28;20413;-65
2023/08/09 07:45:34;;;;;;;;;;;;;;;25.35;44.11;99929.69;3126871;28;19974;-63
2023/08/09 07:47:05;;;;;;;;;;;;;;;25.47;43.61;99932.03;3129411;28;19957;-63
2023/08/09 07:48:36;;;;;;;;;;;;;;;25.62;43.63;99930.41;3139043;28;19935;-63
2023/08/09 07:50:08;;;;;;;;;;;;;;;25.77;43.21;99926.09;3141763;28;19921;-65
2023/08/09 07:51:39;;;;;;;;;;;;;;;25.84;42.61;99928.97;3144234;28;19924;-64
2023/08/09 07:53:10;;;;;;;;;;;;;;;25.86;41.67;99929.66;3143137;28;20023;-61
2023/08/09 07:54:43;;;;;;;;;;;;;;;25.83;41.18;99927.31;3137659;28;19924;-61
2023/08/09 07:56:15;;;;;;;;;;;;;;;25.79;41.37;99921.47;3144080;28;19968;-62